createdAt,value
2019-03-05T00:00:46.084Z,1.60
2019-03-05T00:02:49.955Z,1.63
2019-03-05T00:04:53.713Z,1.80
2019-03-05T00:06:57.909Z,1.97
2019-03-05T00:09:01.819Z,1.60
2019-03-05T00:11:05.704Z,1.63
2019-03-05T00:13:09.516Z,1.63
2019-03-05T00:15:13.993Z,1.70
2019-03-05T00:17:17.630Z,1.33
2019-03-05T00:19:21.553Z,1.40
2019-03-05T00:21:25.251Z,1.00
2019-03-05T00:23:54.505Z,0.80
2019-03-05T00:25:58.255Z,0.80
2019-03-05T00:28:18.014Z,0.70
2019-03-05T00:30:51.121Z,0.80
2019-03-05T00:33:11.496Z,0.83
2019-03-05T00:35:26.257Z,0.80
2019-03-05T00:37:42.730Z,0.70
2019-03-05T00:40:36.690Z,0.70
2019-03-05T00:43:00.292Z,1.00
2019-03-05T00:45:50.872Z,1.00
2019-03-05T00:48:43.607Z,1.00
2019-03-05T00:50:54.522Z,1.10
2019-03-05T00:53:09.455Z,1.00
2019-03-05T00:55:44.693Z,1.10
2019-03-05T00:57:53.283Z,1.10
2019-03-05T01:00:01.847Z,1.10
2019-03-05T01:02:39.018Z,1.30
2019-03-05T01:05:21.293Z,1.10
2019-03-05T01:07:27.190Z,1.27
2019-03-05T01:09:31.571Z,1.27
2019-03-05T01:11:35.438Z,1.40
2019-03-05T01:13:39.609Z,1.37
2019-03-05T01:15:45.552Z,1.27
2019-03-05T01:17:49.258Z,1.43
2019-03-05T01:19:53.065Z,1.50
2019-03-05T01:21:56.843Z,1.53
2019-03-05T01:24:00.561Z,1.43
2019-03-05T01:26:04.763Z,1.50
2019-03-05T01:28:08.544Z,1.50
2019-03-05T01:30:30.706Z,1.50
2019-03-05T01:32:48.551Z,1.60
2019-03-05T01:35:07.749Z,1.70
2019-03-05T01:37:11.529Z,1.30
2019-03-05T01:39:26.057Z,1.67
2019-03-05T01:41:30.099Z,1.37
2019-03-05T01:43:33.817Z,1.60
2019-03-05T01:45:37.549Z,1.60
2019-03-05T01:47:41.374Z,1.50
2019-03-05T01:49:45.227Z,1.53
2019-03-05T01:51:48.960Z,1.57
2019-03-05T01:53:52.662Z,1.40
2019-03-05T01:55:56.390Z,1.63
2019-03-05T01:58:00.099Z,1.33
2019-03-05T02:00:05.152Z,1.33
2019-03-05T02:02:08.945Z,1.60
2019-03-05T02:04:12.723Z,1.30
2019-03-05T02:06:16.850Z,1.23
2019-03-05T02:08:20.555Z,1.60
2019-03-05T02:10:24.667Z,1.30
2019-03-05T02:12:28.367Z,1.30
2019-03-05T02:14:32.162Z,0.87
2019-03-05T02:16:36.185Z,1.20
2019-03-05T02:18:39.984Z,1.03
2019-03-05T02:20:43.793Z,1.13
2019-03-05T02:23:00.727Z,1.13
2019-03-05T02:25:40.816Z,0.87
2019-03-05T02:28:04.505Z,0.90
2019-03-05T02:30:44.186Z,1.03
2019-03-05T02:33:20.869Z,1.00
2019-03-05T02:35:52.492Z,1.40
2019-03-05T02:38:22.116Z,0.90
2019-03-05T02:40:44.411Z,1.27
2019-03-05T02:43:27.198Z,0.90
2019-03-05T02:45:51.932Z,0.83
2019-03-05T02:48:28.929Z,1.00
2019-03-05T02:51:15.083Z,1.03
2019-03-05T02:54:09.253Z,0.90
2019-03-05T02:56:39.350Z,0.90
2019-03-05T02:58:41.704Z,0.93
2019-03-05T03:00:56.722Z,0.70
2019-03-05T03:03:05.972Z,0.80
2019-03-05T03:05:18.293Z,0.87
2019-03-05T03:07:21.983Z,1.03
2019-03-05T03:10:07.339Z,0.93
2019-03-05T03:12:11.045Z,1.07
2019-03-05T03:14:14.947Z,0.70
2019-03-05T03:16:18.682Z,0.97
2019-03-05T03:18:22.370Z,0.70
2019-03-05T03:20:26.239Z,0.80
2019-03-05T03:22:29.952Z,0.70
2019-03-05T03:24:33.690Z,0.60
2019-03-05T03:26:37.412Z,0.70
2019-03-05T03:28:41.098Z,0.93
2019-03-05T03:30:44.809Z,1.20
2019-03-05T03:32:48.605Z,1.37
2019-03-05T03:34:52.303Z,0.70
2019-03-05T03:36:56.077Z,1.03
2019-03-05T03:38:59.798Z,0.80
2019-03-05T03:41:03.588Z,0.93
2019-03-05T03:43:07.361Z,0.97
2019-03-05T03:45:13.998Z,0.57
2019-03-05T03:47:17.716Z,0.80
2019-03-05T03:49:21.433Z,1.00
2019-03-05T03:51:25.152Z,0.83
2019-03-05T03:53:28.879Z,0.70
2019-03-05T03:55:32.688Z,1.67
2019-03-05T03:57:36.468Z,0.80
2019-03-05T03:59:40.164Z,0.80
2019-03-05T04:01:44.031Z,0.80
2019-03-05T04:03:47.724Z,0.90
2019-03-05T04:05:51.675Z,0.70
2019-03-05T04:07:55.382Z,0.83
2019-03-05T04:09:59.106Z,1.03
2019-03-05T04:12:02.875Z,1.10
2019-03-05T04:14:06.654Z,0.87
2019-03-05T04:16:10.380Z,0.90
2019-03-05T04:18:14.096Z,1.10
2019-03-05T04:20:25.240Z,1.30
2019-03-05T04:22:28.960Z,0.80
2019-03-05T04:24:32.695Z,1.10
2019-03-05T04:26:36.580Z,1.13
2019-03-05T04:28:40.310Z,1.20
2019-03-05T04:30:44.042Z,1.03
2019-03-05T04:32:47.748Z,1.40
2019-03-05T04:34:51.475Z,1.10
2019-03-05T04:36:55.349Z,0.90
2019-03-05T04:38:59.063Z,1.07
2019-03-05T04:41:02.969Z,0.80
2019-03-05T04:43:06.691Z,0.70
2019-03-05T04:45:29.518Z,1.13
2019-03-05T04:47:33.220Z,0.90
2019-03-05T04:49:56.029Z,1.20
2019-03-05T04:52:05.712Z,1.57
2019-03-05T04:54:09.424Z,1.30
2019-03-05T04:56:13.237Z,1.03
2019-03-05T04:58:16.936Z,1.10
2019-03-05T05:00:20.789Z,1.03
2019-03-05T05:02:24.778Z,1.30
2019-03-05T05:04:28.476Z,1.10
2019-03-05T05:06:32.254Z,0.80
2019-03-05T05:08:36.033Z,1.07
2019-03-05T05:10:39.741Z,1.00
2019-03-05T05:12:43.508Z,1.13
2019-03-05T05:14:47.219Z,0.97
2019-03-05T05:16:51.171Z,1.10
2019-03-05T05:18:54.867Z,0.73
2019-03-05T05:20:58.635Z,1.37
2019-03-05T05:23:02.354Z,1.10
2019-03-05T05:25:06.239Z,1.03
2019-03-05T05:27:12.587Z,1.00
2019-03-05T05:29:16.291Z,0.83
2019-03-05T05:31:20.137Z,0.90
2019-03-05T05:33:23.956Z,0.80
2019-03-05T05:35:27.655Z,1.00
2019-03-05T05:37:31.497Z,0.90
2019-03-05T05:40:10.850Z,1.30
2019-03-05T05:42:14.757Z,1.40
2019-03-05T05:44:18.469Z,0.70
2019-03-05T05:46:22.206Z,0.83
2019-03-05T05:48:25.927Z,0.87
2019-03-05T05:50:29.643Z,0.60
2019-03-05T05:52:33.390Z,0.67
2019-03-05T05:54:37.096Z,0.60
2019-03-05T05:56:40.826Z,0.87
2019-03-05T05:58:44.524Z,0.90
2019-03-05T06:00:50.658Z,0.73
2019-03-05T06:02:54.344Z,0.90
2019-03-05T06:04:58.052Z,0.93
2019-03-05T06:07:01.788Z,0.53
2019-03-05T06:09:07.645Z,1.03
2019-03-05T06:11:11.445Z,0.60
2019-03-05T06:13:15.208Z,0.70
2019-03-05T06:15:18.991Z,0.90
2019-03-05T06:17:22.827Z,0.70
2019-03-05T06:19:26.535Z,0.80
2019-03-05T06:21:30.381Z,0.70
2019-03-05T06:23:34.234Z,0.70
2019-03-05T06:25:38.086Z,0.80
2019-03-05T06:27:42.068Z,0.40
2019-03-05T06:29:45.797Z,0.47
2019-03-05T06:31:49.513Z,0.50
2019-03-05T06:33:53.240Z,0.67
2019-03-05T06:35:56.953Z,0.80
2019-03-05T06:38:00.793Z,0.67
2019-03-05T06:40:05.052Z,0.60
2019-03-05T06:42:08.828Z,0.70
2019-03-05T06:44:12.621Z,0.70
2019-03-05T06:46:16.335Z,0.70
2019-03-05T06:48:20.182Z,0.80
2019-03-05T06:50:23.889Z,0.70
2019-03-05T06:52:27.732Z,0.83
2019-03-05T06:54:31.440Z,0.77
2019-03-05T06:56:35.273Z,0.97
2019-03-05T06:58:39.014Z,0.80
2019-03-05T07:00:42.719Z,0.90
2019-03-05T07:02:46.501Z,0.80
2019-03-05T07:04:59.033Z,0.70
2019-03-05T07:07:02.880Z,0.70
2019-03-05T07:09:11.682Z,0.80
2019-03-05T07:11:54.438Z,0.80
2019-03-05T07:13:59.478Z,0.80
2019-03-05T07:16:10.607Z,0.93
2019-03-05T07:18:52.811Z,0.80
2019-03-05T07:21:38.892Z,0.77
2019-03-05T07:24:07.598Z,0.90
2019-03-05T07:26:11.291Z,1.00
2019-03-05T07:28:15.092Z,1.10
2019-03-05T07:30:23.517Z,0.80
2019-03-05T07:32:27.291Z,1.27
2019-03-05T07:34:32.290Z,0.83
2019-03-05T07:36:35.983Z,0.90
2019-03-05T07:38:39.718Z,1.10
2019-03-05T07:40:43.420Z,1.00
2019-03-05T07:42:47.360Z,1.20
2019-03-05T07:44:51.147Z,1.17
2019-03-05T07:46:54.844Z,0.80
2019-03-05T07:48:58.710Z,1.27
2019-03-05T07:51:02.490Z,1.30
2019-03-05T07:53:06.283Z,1.13
2019-03-05T07:55:15.448Z,1.00
2019-03-05T07:57:19.154Z,1.00
2019-03-05T07:59:22.882Z,1.20
2019-03-05T08:01:26.605Z,1.10
2019-03-05T08:03:30.393Z,1.80
2019-03-05T08:05:34.381Z,1.40
2019-03-05T08:07:38.134Z,1.17
2019-03-05T08:09:41.840Z,1.13
2019-03-05T08:11:45.545Z,1.23
2019-03-05T08:14:34.042Z,1.20
2019-03-05T08:16:37.814Z,1.23
2019-03-05T08:18:41.694Z,1.00
2019-03-05T08:20:45.406Z,1.50
2019-03-05T08:22:49.267Z,1.20
2019-03-05T08:24:52.994Z,1.10
2019-03-05T08:26:56.717Z,0.97
2019-03-05T08:29:02.845Z,1.10
2019-03-05T08:31:05.933Z,1.00
2019-03-05T08:33:09.746Z,1.20
2019-03-05T08:35:13.714Z,1.10
2019-03-05T08:37:17.414Z,0.90
2019-03-05T08:39:21.305Z,0.73
2019-03-05T08:41:25.061Z,1.00
2019-03-05T08:43:28.874Z,1.27
2019-03-05T08:45:32.584Z,0.70
2019-03-05T08:47:36.271Z,0.80
2019-03-05T08:49:40.059Z,0.97
2019-03-05T08:51:43.757Z,1.00
2019-03-05T08:55:54.097Z,1.03
2019-03-05T09:00:05.455Z,0.97
2019-03-05T09:02:09.315Z,0.80
2019-03-05T09:04:13.051Z,0.97
2019-03-05T09:06:16.878Z,1.10
2019-03-05T09:08:20.791Z,0.87
2019-03-05T09:10:25.659Z,0.70
2019-03-05T09:12:29.755Z,0.80
2019-03-05T09:14:34.621Z,0.80
2019-03-05T09:16:38.450Z,0.90
2019-03-05T09:18:42.186Z,0.70
2019-03-05T09:20:46.037Z,0.83
2019-03-05T09:22:49.841Z,0.80
2019-03-05T09:24:53.768Z,0.77
2019-03-05T09:26:57.470Z,0.80
2019-03-05T09:29:01.200Z,0.60
2019-03-05T09:31:05.248Z,0.60
2019-03-05T09:33:09.025Z,1.30
2019-03-05T09:35:13.293Z,0.97
2019-03-05T09:37:17.008Z,0.73
2019-03-05T09:39:20.857Z,0.60
2019-03-05T09:41:24.567Z,0.60
2019-03-05T09:43:28.306Z,0.80
2019-03-05T09:45:32.281Z,0.90
2019-03-05T09:47:35.976Z,0.50
2019-03-05T09:49:39.830Z,0.50
2019-03-05T09:51:43.553Z,0.67
2019-03-05T09:53:47.472Z,0.83
2019-03-05T09:55:51.707Z,0.50
2019-03-05T09:58:06.858Z,0.70
2019-03-05T10:00:01.275Z,0.70
2019-03-05T10:02:05.396Z,0.67
2019-03-05T10:04:09.138Z,0.53
2019-03-05T10:06:12.877Z,0.77
2019-03-05T10:08:16.749Z,1.00
2019-03-05T10:10:24.857Z,0.60
2019-03-05T10:12:30.154Z,0.70
2019-03-05T10:14:34.144Z,0.60
2019-03-05T10:16:37.845Z,0.73
2019-03-05T10:18:41.584Z,0.80
2019-03-05T10:20:45.349Z,0.70
2019-03-05T10:22:49.537Z,0.50
2019-03-05T10:24:53.628Z,0.83
2019-03-05T10:26:57.494Z,0.50
2019-03-05T10:29:01.701Z,0.40
2019-03-05T10:31:05.644Z,0.90
2019-03-05T10:33:10.197Z,0.50
2019-03-05T10:35:14.079Z,0.70
2019-03-05T10:37:18.993Z,0.80
2019-03-05T10:39:30.685Z,0.70
2019-03-05T10:41:30.749Z,0.60
2019-03-05T10:43:34.728Z,0.80
2019-03-05T10:45:40.362Z,0.47
2019-03-05T10:47:44.152Z,0.67
2019-03-05T10:49:47.971Z,0.50
2019-03-05T10:51:51.766Z,0.77
2019-03-05T10:53:55.508Z,0.60
2019-03-05T10:55:59.383Z,0.50
2019-03-05T10:58:03.342Z,0.60
2019-03-05T11:00:10.400Z,0.50
2019-03-05T11:02:15.199Z,0.73
2019-03-05T11:04:18.981Z,0.70
2019-03-05T11:06:22.682Z,0.70
2019-03-05T11:08:27.424Z,0.57
2019-03-05T11:10:31.697Z,0.67
2019-03-05T11:12:35.493Z,0.50
2019-03-05T11:14:39.449Z,0.60
2019-03-05T11:16:43.166Z,0.30
2019-03-05T11:18:46.950Z,0.70
2019-03-05T11:20:50.907Z,0.60
2019-03-05T11:22:54.815Z,1.00
2019-03-05T11:24:58.623Z,0.53
2019-03-05T11:27:02.330Z,0.70
2019-03-05T11:29:06.109Z,0.30
2019-03-05T11:31:10.349Z,0.50
2019-03-05T11:33:14.340Z,0.60
2019-03-05T11:35:20.155Z,0.50
2019-03-05T11:37:23.941Z,0.50
2019-03-05T11:39:27.725Z,0.77
2019-03-05T11:41:31.790Z,0.77
2019-03-05T11:43:35.516Z,0.77
2019-03-05T11:45:40.140Z,0.70
2019-03-05T11:47:44.133Z,0.60
2019-03-05T11:49:47.936Z,0.97
2019-03-05T11:51:51.689Z,0.70
2019-03-05T11:53:55.385Z,0.80
2019-03-05T11:55:59.182Z,0.70
2019-03-05T11:58:02.896Z,0.60
2019-03-05T12:00:08.727Z,1.00
2019-03-05T12:02:21.556Z,0.50
2019-03-05T12:04:17.964Z,0.60
2019-03-05T12:06:21.755Z,0.43
2019-03-05T12:08:25.469Z,0.60
2019-03-05T12:10:29.264Z,0.60
2019-03-05T12:12:32.974Z,0.60
2019-03-05T12:14:36.767Z,0.80
2019-03-05T12:16:41.736Z,0.73
2019-03-05T12:18:45.467Z,0.70
2019-03-05T12:20:49.262Z,0.93
2019-03-05T12:22:52.958Z,0.80
2019-03-05T12:24:57.637Z,0.40
2019-03-05T12:27:02.259Z,0.43
2019-03-05T12:29:06.048Z,0.93
2019-03-05T12:31:09.836Z,0.87
2019-03-05T12:33:13.620Z,0.87
2019-03-05T12:35:17.478Z,0.70
2019-03-05T12:37:21.206Z,0.60
2019-03-05T12:39:25.063Z,0.80
2019-03-05T12:41:28.785Z,0.93
2019-03-05T12:43:32.594Z,0.80
2019-03-05T12:45:36.434Z,0.83
2019-03-05T12:47:40.199Z,0.80
2019-03-05T12:49:43.935Z,0.90
2019-03-05T12:51:47.712Z,0.60
2019-03-05T12:53:51.435Z,0.57
2019-03-05T12:55:55.156Z,0.83
2019-03-05T12:57:58.857Z,0.60
2019-03-05T13:00:02.584Z,0.67
2019-03-05T13:02:06.523Z,0.83
2019-03-05T13:08:21.928Z,0.70
2019-03-05T13:10:25.943Z,0.87
2019-03-05T13:12:32.154Z,0.60
2019-03-05T13:14:38.289Z,0.97
2019-03-05T13:16:40.798Z,0.70
2019-03-05T13:18:44.471Z,0.47
2019-03-05T13:20:48.378Z,0.97
2019-03-05T13:22:52.092Z,1.00
2019-03-05T13:24:55.833Z,0.90
2019-03-05T13:26:59.532Z,0.90
2019-03-05T13:29:03.338Z,0.80
2019-03-05T13:31:07.220Z,0.80
2019-03-05T13:33:10.930Z,0.73
2019-03-05T13:35:15.740Z,0.70
2019-03-05T13:37:19.503Z,0.57
2019-03-05T13:39:23.895Z,0.50
2019-03-05T13:41:27.710Z,0.37
2019-03-05T13:43:31.572Z,0.40
2019-03-05T13:45:35.489Z,0.60
2019-03-05T13:47:41.659Z,0.57
2019-03-05T13:49:59.839Z,0.40
2019-03-05T13:52:42.619Z,0.23
2019-03-05T13:55:06.854Z,0.70
2019-03-05T13:57:44.200Z,0.40
2019-03-05T13:59:51.447Z,0.50
2019-03-05T14:01:55.138Z,0.50
2019-03-05T14:04:03.110Z,0.43
2019-03-05T14:06:51.126Z,0.73
2019-03-05T14:09:14.460Z,0.60
2019-03-05T14:11:18.190Z,0.63
2019-03-05T14:13:23.656Z,0.60
2019-03-05T14:15:27.593Z,0.60
2019-03-05T14:17:35.003Z,0.50
2019-03-05T14:19:38.793Z,0.50
2019-03-05T14:21:42.725Z,0.37
2019-03-05T14:23:46.848Z,0.57
2019-03-05T14:25:50.787Z,0.80
2019-03-05T14:27:54.485Z,0.57
2019-03-05T14:29:58.254Z,0.70
2019-03-05T14:32:02.309Z,0.70
2019-03-05T14:34:06.143Z,0.83
2019-03-05T14:36:09.898Z,0.63
2019-03-05T14:38:13.807Z,0.70
2019-03-05T14:40:24.592Z,0.80
2019-03-05T14:42:26.191Z,1.00
2019-03-05T14:44:39.486Z,0.70
2019-03-05T14:46:36.766Z,1.20
2019-03-05T14:48:40.533Z,0.80
2019-03-05T14:50:44.520Z,0.97
2019-03-05T14:52:48.230Z,1.20
2019-03-05T14:54:51.944Z,1.03
2019-03-05T14:56:55.813Z,1.00
2019-03-05T14:58:59.553Z,1.00
2019-03-05T15:01:03.345Z,0.93
2019-03-05T15:03:07.111Z,0.73
2019-03-05T15:05:11.225Z,1.00
2019-03-05T15:07:15.087Z,1.27
2019-03-05T15:09:18.784Z,0.67
2019-03-05T15:11:22.570Z,0.60
2019-03-05T15:13:26.443Z,0.63
2019-03-05T15:15:30.869Z,0.70
2019-03-05T15:17:34.781Z,0.60
2019-03-05T15:19:38.501Z,0.60
2019-03-05T15:21:42.263Z,0.60
2019-03-05T15:23:46.000Z,0.40
2019-03-05T15:25:49.768Z,0.60
2019-03-05T15:27:53.637Z,0.50
2019-03-05T15:29:57.302Z,0.33
2019-03-05T15:32:01.168Z,0.50
2019-03-05T15:34:04.981Z,0.33
2019-03-05T15:36:08.910Z,0.40
2019-03-05T15:38:12.673Z,0.40
2019-03-05T15:40:16.567Z,0.40
2019-03-05T15:42:20.348Z,0.70
2019-03-05T15:44:24.014Z,0.90
2019-03-05T15:46:27.912Z,0.40
2019-03-05T15:48:31.653Z,0.30
2019-03-05T15:50:35.501Z,0.40
2019-03-05T15:52:39.275Z,0.40
2019-03-05T15:54:43.064Z,0.53
2019-03-05T15:56:46.789Z,0.47
2019-03-05T15:58:50.495Z,0.60
2019-03-05T16:00:54.214Z,0.30
2019-03-05T16:02:58.086Z,0.50
2019-03-05T16:05:11.382Z,0.50
2019-03-05T16:07:10.976Z,0.37
2019-03-05T16:09:18.250Z,0.40
2019-03-05T16:11:22.096Z,0.47
2019-03-05T16:13:25.846Z,0.40
2019-03-05T16:15:29.618Z,0.30
2019-03-05T16:17:33.345Z,0.60
2019-03-05T16:19:37.056Z,0.50
2019-03-05T16:21:41.357Z,0.60
2019-03-05T16:23:46.334Z,0.50
2019-03-05T16:25:51.876Z,0.50
2019-03-05T16:27:55.761Z,0.50
2019-03-05T16:29:59.475Z,0.40
2019-03-05T16:32:15.989Z,0.80
2019-03-05T16:34:28.236Z,0.80
2019-03-05T16:36:53.884Z,0.40
2019-03-05T16:39:33.297Z,0.70
2019-03-05T16:41:47.883Z,0.77
2019-03-05T16:44:02.914Z,0.60
2019-03-05T16:46:43.939Z,0.60
2019-03-05T16:49:05.532Z,0.80
2019-03-05T16:51:15.267Z,0.60
2019-03-05T16:53:36.819Z,0.90
2019-03-05T16:55:52.005Z,0.67
2019-03-05T16:58:27.250Z,0.60
2019-03-05T17:00:49.048Z,1.30
2019-03-05T17:02:55.325Z,2.33
2019-03-05T17:05:18.050Z,1.60
2019-03-05T17:07:50.128Z,2.47
2019-03-05T17:10:09.234Z,1.80
2019-03-05T17:12:13.146Z,2.37
2019-03-05T17:14:16.953Z,2.83
2019-03-05T17:16:20.819Z,2.57
2019-03-05T17:18:24.631Z,2.70
2019-03-05T17:20:28.535Z,3.47
2019-03-05T17:22:32.272Z,5.70
2019-03-05T17:24:36.146Z,4.87
2019-03-05T17:26:39.956Z,4.13
2019-03-05T17:28:43.749Z,2.80
2019-03-05T17:30:47.531Z,3.67
2019-03-05T17:32:51.446Z,4.23
2019-03-05T17:34:55.149Z,2.53
2019-03-05T17:36:58.923Z,1.60
2019-03-05T17:39:02.691Z,1.90
2019-03-05T17:41:06.412Z,1.53
2019-03-05T17:43:10.302Z,1.10
2019-03-05T17:45:18.263Z,1.57
2019-03-05T17:47:22.032Z,1.20
2019-03-05T17:49:25.950Z,1.83
2019-03-05T17:51:31.056Z,2.30
2019-03-05T17:53:34.969Z,10.03
2019-03-05T17:55:38.746Z,2.30
2019-03-05T17:57:42.455Z,1.67
2019-03-05T17:59:46.344Z,1.10
2019-03-05T18:01:51.515Z,1.40
2019-03-05T18:03:55.363Z,0.80
2019-03-05T18:05:59.112Z,0.90
2019-03-05T18:08:02.940Z,0.73
2019-03-05T18:10:07.399Z,0.90
2019-03-05T18:12:11.407Z,0.73
2019-03-05T18:14:15.246Z,0.97
2019-03-05T18:16:19.026Z,0.90
2019-03-05T18:18:22.800Z,1.10
2019-03-05T18:20:26.519Z,1.13
2019-03-05T18:22:30.257Z,1.00
2019-03-05T18:24:34.094Z,1.00
2019-03-05T18:26:37.793Z,0.93
2019-03-05T18:28:42.478Z,1.30
2019-03-05T18:30:46.732Z,1.00
2019-03-05T18:32:50.597Z,1.10
2019-03-05T18:34:54.352Z,1.30
2019-03-05T18:36:58.117Z,1.30
2019-03-05T18:39:01.885Z,1.20
2019-03-05T18:41:05.729Z,1.00
2019-03-05T18:43:09.444Z,0.90
2019-03-05T18:45:16.006Z,1.03
2019-03-05T18:47:19.793Z,1.10
2019-03-05T18:49:23.610Z,1.10
2019-03-05T18:51:27.356Z,1.00
2019-03-05T18:53:31.136Z,1.17
2019-03-05T18:55:34.914Z,0.93
2019-03-05T18:57:38.614Z,0.87
2019-03-05T18:59:42.440Z,1.10
2019-03-05T19:01:46.162Z,1.20
2019-03-05T19:03:50.044Z,1.20
2019-03-05T19:05:53.900Z,1.00
2019-03-05T19:07:57.603Z,1.00
2019-03-05T19:10:01.414Z,1.10
2019-03-05T19:12:05.494Z,0.97
2019-03-05T19:14:09.408Z,1.07
2019-03-05T19:16:13.185Z,1.10
2019-03-05T19:18:16.964Z,1.33
2019-03-05T19:20:22.380Z,0.90
2019-03-05T19:22:26.122Z,1.10
2019-03-05T19:24:29.959Z,1.00
2019-03-05T19:26:33.796Z,1.00
2019-03-05T19:28:37.525Z,1.20
2019-03-05T19:30:41.436Z,0.93
2019-03-05T19:32:45.218Z,1.07
2019-03-05T19:34:48.963Z,0.97
2019-03-05T19:36:52.661Z,1.23
2019-03-05T19:38:56.635Z,0.97
2019-03-05T19:41:00.417Z,1.00
2019-03-05T19:43:04.479Z,1.10
2019-03-05T19:45:09.022Z,1.00
2019-03-05T20:59:42.764Z,2.60
2019-03-05T21:01:48.094Z,2.17
2019-03-05T21:03:59.514Z,2.40
2019-03-05T21:06:03.398Z,2.90
2019-03-05T21:08:07.244Z,3.00
2019-03-05T21:10:11.197Z,4.43
2019-03-05T21:12:14.950Z,3.90
2019-03-05T21:14:18.685Z,3.80
2019-03-05T21:16:22.600Z,3.67
2019-03-05T21:18:26.295Z,3.20
2019-03-05T21:20:30.103Z,2.53
2019-03-05T21:22:33.798Z,2.57
2019-03-05T21:24:37.504Z,2.70
2019-03-05T21:26:41.227Z,2.43
2019-03-05T21:28:44.934Z,2.30
2019-03-05T21:30:48.742Z,2.73
2019-03-05T21:32:52.625Z,2.77
2019-03-05T21:34:56.343Z,2.77
2019-03-05T21:37:00.071Z,2.53
2019-03-05T21:39:05.366Z,3.07
2019-03-05T21:41:09.351Z,3.70
2019-03-05T21:43:13.122Z,2.57
2019-03-05T21:45:23.150Z,3.33
2019-03-05T21:47:27.001Z,3.20
2019-03-05T21:49:30.801Z,3.23
2019-03-05T21:51:34.537Z,3.33
2019-03-05T21:53:38.314Z,2.93
2019-03-05T21:55:42.148Z,3.07
2019-03-05T21:57:46.213Z,3.87
2019-03-05T21:59:49.907Z,3.10
2019-03-05T22:01:53.963Z,3.00
2019-03-05T22:03:57.693Z,3.73
2019-03-05T22:06:01.452Z,3.50
2019-03-05T22:08:05.224Z,4.03
2019-03-05T22:10:11.737Z,4.93
2019-03-05T22:12:15.481Z,4.13
2019-03-05T22:14:19.200Z,3.30
2019-03-05T22:16:23.053Z,4.97
2019-03-05T22:18:26.850Z,9.17
2019-03-05T22:20:30.645Z,15.57
2019-03-05T22:22:34.762Z,15.83
2019-03-05T22:24:38.473Z,13.50
2019-03-05T22:26:42.215Z,10.20
2019-03-05T22:28:46.096Z,8.43
2019-03-05T22:30:49.808Z,6.57
2019-03-05T22:32:53.777Z,5.40
2019-03-05T22:34:57.667Z,4.00
2019-03-05T22:37:01.582Z,3.60
2019-03-05T22:39:06.856Z,3.43
2019-03-05T22:41:10.563Z,4.70
2019-03-05T22:43:14.483Z,4.90
2019-03-05T22:45:19.726Z,4.27
2019-03-05T22:47:23.795Z,5.50
2019-03-05T22:49:27.559Z,6.97
2019-03-05T22:51:31.315Z,5.53
2019-03-05T22:53:35.043Z,5.63
2019-03-05T22:55:38.758Z,5.57
2019-03-05T22:57:42.652Z,6.60
2019-03-05T22:59:46.611Z,7.10
2019-03-05T23:01:50.763Z,6.43
2019-03-05T23:03:56.258Z,5.10
2019-03-05T23:06:00.933Z,5.43
2019-03-05T23:08:04.839Z,4.73
2019-03-05T23:10:10.078Z,4.47
2019-03-05T23:12:14.172Z,3.97
2019-03-05T23:14:17.897Z,4.40
2019-03-05T23:16:21.972Z,5.77
2019-03-05T23:18:25.794Z,5.27
2019-03-05T23:20:29.563Z,5.70
2019-03-05T23:22:33.423Z,4.73
2019-03-05T23:24:37.377Z,4.57
2019-03-05T23:26:41.172Z,5.23
2019-03-05T23:28:45.076Z,4.53
2019-03-05T23:30:49.129Z,4.17
2019-03-05T23:32:53.284Z,4.77
2019-03-05T23:34:57.123Z,4.57
2019-03-05T23:37:01.118Z,4.07
2019-03-05T23:39:07.545Z,3.70
2019-03-05T23:41:11.330Z,4.63
2019-03-05T23:43:15.191Z,4.37
2019-03-05T23:45:19.042Z,4.20
2019-03-05T23:47:22.911Z,4.80
2019-03-05T23:49:26.856Z,4.67
2019-03-05T23:51:30.721Z,5.23
2019-03-05T23:53:34.440Z,5.40
2019-03-05T23:55:38.140Z,4.97
2019-03-05T23:57:41.930Z,5.50
2019-03-05T23:59:45.634Z,5.30
